Time,TemperatureF,DewpointF,PressureIn,WindDirection,WindDirectionDegrees,WindSpeedMPH,WindSpeedGustMPH,Humidity,HourlyPrecipIn,Conditions,Clouds,dailyrainin,SolarRadiationWatts/m^2,SoftwareType,DateUTC
2013-08-11 00:00:00,81.9,77.7,29.94,ESE,112,1.0,4.0,87,0.00,,,0.00,0.00,VWS V14.00,2013-08-11 05:00:00,
2013-08-11 00:15:00,81.9,77.3,29.94,East,90,1.0,4.0,86,0.00,,,0.00,0.00,VWS V14.00,2013-08-11 05:15:00,
2013-08-11 00:30:00,81.9,77.3,29.94,East,90,1.0,3.0,86,0.00,,,0.00,0.00,VWS V14.00,2013-08-11 05:30:00,
2013-08-11 00:45:00,81.7,77.5,29.94,ESE,112,1.0,4.0,87,0.00,,,0.00,0.00,VWS V14.00,2013-08-11 05:45:00,
2013-08-11 01:00:00,81.9,77.3,29.94,ESE,112,1.0,4.0,86,0.00,,,0.00,0.00,VWS V14.00,2013-08-11 06:00:00,
2013-08-11 01:15:00,81.8,77.6,29.94,ESE,112,0.0,3.0,87,0.00,,,0.00,0.00,VWS V14.00,2013-08-11 06:15:00,
2013-08-11 01:30:00,81.7,77.5,29.93,East,90,1.0,3.0,87,0.00,,,0.00,0.00,VWS V14.00,2013-08-11 06:30:00,
2013-08-11 01:45:00,81.9,77.3,29.93,ESE,112,1.0,4.0,86,0.00,,,0.00,0.00,VWS V14.00,2013-08-11 06:45:00,
2013-08-11 02:00:00,82.0,77.8,29.93,ESE,112,1.0,5.0,87,0.00,,,0.00,0.00,VWS V14.00,2013-08-11 07:00:00,
2013-08-11 02:15:00,81.5,77.3,29.93,ESE,112,0.0,2.0,87,0.00,,,0.00,0.00,VWS V14.00,2013-08-11 07:15:00,
2013-08-11 02:30:00,81.2,77.3,29.94,ESE,112,0.0,1.0,88,0.00,,,0.00,0.00,VWS V14.00,2013-08-11 07:30:00,
2013-08-11 02:45:00,80.9,77.0,29.94,ESE,112,0.0,0.0,88,0.00,,,0.00,0.00,VWS V14.00,2013-08-11 07:45:00,
2013-08-11 03:00:00,80.8,77.3,29.94,ESE,112,0.0,0.0,89,0.00,,,0.00,0.00,VWS V14.00,2013-08-11 08:00:00,
2013-08-11 03:15:00,80.8,77.3,29.94,ESE,112,0.0,0.0,89,0.00,,,0.00,0.00,VWS V14.00,2013-08-11 08:15:00,
2013-08-11 03:30:00,80.9,77.4,29.94,ESE,112,0.0,1.0,89,0.00,,,0.00,0.00,VWS V14.00,2013-08-11 08:30:00,
2013-08-11 03:45:00,80.8,77.3,29.94,ESE,112,0.0,0.0,89,0.00,,,0.00,0.00,VWS V14.00,2013-08-11 08:45:00,
2013-08-11 04:00:00,80.6,77.4,29.94,ESE,112,0.0,0.0,90,0.00,,,0.00,0.00,VWS V14.00,2013-08-11 09:00:00,
2013-08-11 04:15:00,80.5,77.3,29.94,ESE,112,0.0,1.0,90,0.00,,,0.00,0.00,VWS V14.00,2013-08-11 09:15:00,
2013-08-11 04:30:00,80.6,77.4,29.94,ESE,112,0.0,2.0,90,0.00,,,0.00,0.00,VWS V14.00,2013-08-11 09:30:00,
2013-08-11 04:45:00,80.5,77.3,29.93,ESE,112,0.0,1.0,90,0.00,,,0.00,0.00,VWS V14.00,2013-08-11 09:45:00,
2013-08-11 05:00:00,80.3,77.1,29.94,ESE,112,0.0,0.0,90,0.00,,,0.00,0.00,VWS V14.00,2013-08-11 10:00:00,
2013-08-11 05:15:00,79.9,77.0,29.94,ESE,112,0.0,0.0,91,0.00,,,0.00,0.00,VWS V14.00,2013-08-11 10:15:00,
2013-08-11 05:30:00,79.8,76.9,29.94,ESE,112,0.0,1.0,91,0.00,,,0.00,0.00,VWS V14.00,2013-08-11 10:30:00,
2013-08-11 05:45:00,79.7,76.8,29.94,ESE,112,0.0,0.0,91,0.00,,,0.00,0.00,VWS V14.00,2013-08-11 10:45:00,
2013-08-11 06:00:00,79.7,76.8,29.94,ESE,112,0.0,0.0,91,0.00,,,0.00,0.00,VWS V14.00,2013-08-11 11:00:00,
2013-08-11 06:15:00,79.7,77.2,29.95,ESE,112,0.0,3.0,92,0.00,,,0.00,0.00,VWS V14.00,2013-08-11 11:15:00,
2013-08-11 06:30:00,79.4,76.9,29.95,ESE,112,0.0,1.0,92,0.00,,,0.00,0.00,VWS V14.00,2013-08-11 11:30:00,
2013-08-11 06:45:00,79.2,76.7,29.95,ESE,112,0.0,1.0,92,0.00,,,0.00,0.00,VWS V14.00,2013-08-11 11:45:00,
2013-08-11 07:00:00,79.2,76.7,29.95,SE,135,0.0,1.0,92,0.00,,,0.00,0.00,VWS V14.00,2013-08-11 12:00:00,
2013-08-11 07:15:00,78.9,76.7,29.96,SE,135,0.0,0.0,93,0.00,,,0.00,18.00,VWS V14.00,2013-08-11 12:15:00,
2013-08-11 07:30:00,78.9,76.7,29.96,SE,135,0.0,1.0,93,0.00,,,0.00,22.00,VWS V14.00,2013-08-11 12:30:00,
2013-08-11 07:45:00,79.2,77.0,29.96,ESE,112,0.0,4.0,93,0.00,,,0.00,49.00,VWS V14.00,2013-08-11 12:45:00,
2013-08-11 08:00:00,79.7,77.2,29.96,ESE,112,1.0,3.0,92,0.00,,,0.00,72.00,VWS V14.00,2013-08-11 13:00:00,
2013-08-11 08:15:00,81.1,78.2,29.97,ESE,112,0.0,2.0,91,0.00,,,0.00,200.00,VWS V14.00,2013-08-11 13:15:00,
2013-08-11 08:30:00,83.6,79.0,29.98,ESE,112,0.0,2.0,86,0.00,,,0.00,272.00,VWS V14.00,2013-08-11 13:30:00,
2013-08-11 08:45:00,85.2,79.1,29.98,ESE,112,1.0,3.0,82,0.00,,,0.00,347.00,VWS V14.00,2013-08-11 13:45:00,
2013-08-11 09:00:00,86.6,79.7,29.98,ESE,112,1.0,3.0,80,0.00,,,0.00,407.00,VWS V14.00,2013-08-11 14:00:00,
2013-08-11 09:15:00,87.3,79.6,29.98,East,90,2.0,5.0,78,0.00,,,0.00,490.00,VWS V14.00,2013-08-11 14:15:00,
2013-08-11 09:30:00,87.8,79.3,29.99,ESE,112,2.0,6.0,76,0.00,,,0.00,550.00,VWS V14.00,2013-08-11 14:30:00,
2013-08-11 09:45:00,89.0,79.6,29.99,ESE,112,1.0,4.0,74,0.00,,,0.00,614.00,VWS V14.00,2013-08-11 14:45:00,
2013-08-11 10:00:00,88.8,79.4,29.99,NE,45,1.0,6.0,74,0.00,,,0.00,434.00,VWS V14.00,2013-08-11 15:00:00,
2013-08-11 10:15:00,88.3,79.8,29.99,SSW,202,1.0,5.0,76,0.00,,,0.00,344.00,VWS V14.00,2013-08-11 15:15:00,
2013-08-11 10:30:00,87.9,78.6,29.99,WSW,248,0.0,3.0,74,0.00,,,0.00,244.00,VWS V14.00,2013-08-11 15:30:00,
2013-08-11 10:45:00,88.6,79.2,29.99,West,270,1.0,5.0,74,0.00,,,0.00,469.00,VWS V14.00,2013-08-11 15:45:00,
2013-08-11 11:00:00,88.8,79.9,29.99,NNW,338,0.0,4.0,75,0.00,,,0.00,463.00,VWS V14.00,2013-08-11 16:00:00,
2013-08-11 11:15:00,90.5,78.5,29.98,NNW,338,1.0,3.0,68,0.00,,,0.00,923.00,VWS V14.00,2013-08-11 16:15:00,
2013-08-11 11:30:00,91.6,77.2,29.98,NNE,22,1.0,4.0,63,0.00,,,0.00,882.00,VWS V14.00,2013-08-11 16:30:00,
2013-08-11 11:45:00,91.8,78.8,29.98,South,180,1.0,4.0,66,0.00,,,0.00,931.00,VWS V14.00,2013-08-11 16:45:00,
2013-08-11 12:00:00,91.0,76.7,29.98,SSW,202,1.0,5.0,63,0.00,,,0.00,880.00,VWS V14.00,2013-08-11 17:00:00,
2013-08-11 12:15:00,90.6,77.7,29.98,SSW,202,1.0,6.0,66,0.00,,,0.00,472.00,VWS V14.00,2013-08-11 17:15:00,
2013-08-11 12:45:00,89.2,75.9,29.97,NE,45,2.0,6.0,65,0.00,,,0.00,434.00,VWS V14.00,2013-08-11 17:45:00,
2013-08-11 13:00:00,90.3,76.5,29.97,NNE,22,3.0,6.0,64,0.00,,,0.00,529.00,VWS V14.00,2013-08-11 18:00:00,
2013-08-11 13:15:00,91.5,75.2,29.96,NE,45,2.0,7.0,59,0.00,,,0.00,1042.00,VWS V14.00,2013-08-11 18:15:00,
2013-08-11 13:30:00,92.5,78.1,29.96,NNE,22,3.0,10.0,63,0.00,,,0.00,727.00,VWS V14.00,2013-08-11 18:30:00,
2013-08-11 13:45:00,92.7,76.3,29.96,NNE,22,3.0,12.0,59,0.00,,,0.00,611.00,VWS V14.00,2013-08-11 18:45:00,
2013-08-11 14:00:00,93.4,76.4,29.96,NE,45,3.0,10.0,58,0.00,,,0.00,878.00,VWS V14.00,2013-08-11 19:00:00,
2013-08-11 14:15:00,93.2,75.7,29.95,North,0,2.0,7.0,57,0.00,,,0.00,431.00,VWS V14.00,2013-08-11 19:15:00,
2013-08-11 14:30:00,92.9,76.5,29.94,East,90,2.0,7.0,59,0.00,,,0.00,757.00,VWS V14.00,2013-08-11 19:30:00,
2013-08-11 14:45:00,93.6,78.6,29.94,ESE,112,3.0,8.0,62,0.00,,,0.00,1072.00,VWS V14.00,2013-08-11 19:45:00,
2013-08-11 15:00:00,91.7,78.3,29.94,South,180,3.0,10.0,65,0.00,,,0.00,371.00,VWS V14.00,2013-08-11 20:00:00,
2013-08-11 15:15:00,91.8,78.4,29.94,East,90,5.0,12.0,65,0.00,,,0.00,661.00,VWS V14.00,2013-08-11 20:15:00,
2013-08-11 15:30:00,91.5,77.6,29.93,ESE,112,4.0,12.0,64,0.00,,,0.00,536.00,VWS V14.00,2013-08-11 20:30:00,
2013-08-11 15:45:00,92.6,78.2,29.94,East,90,4.0,13.0,63,0.00,,,0.00,862.00,VWS V14.00,2013-08-11 20:45:00,
2013-08-11 16:00:00,92.1,77.7,29.93,ESE,112,5.0,12.0,63,0.00,,,0.00,903.00,VWS V14.00,2013-08-11 21:00:00,
2013-08-11 16:15:00,92.8,77.9,29.93,South,180,4.0,12.0,62,0.00,,,0.00,738.00,VWS V14.00,2013-08-11 21:15:00,
2013-08-11 16:30:00,90.2,76.8,29.93,ESE,112,6.0,14.0,65,0.00,,,0.00,405.00,VWS V14.00,2013-08-11 21:30:00,
2013-08-11 16:45:00,88.8,77.8,29.93,ESE,112,5.0,15.0,70,0.00,,,0.00,412.00,VWS V14.00,2013-08-11 21:45:00,
2013-08-11 17:00:00,88.2,78.0,29.94,East,90,4.0,11.0,72,0.00,,,0.00,258.00,VWS V14.00,2013-08-11 22:00:00,
2013-08-11 17:15:00,87.3,77.6,29.94,ESE,112,4.0,12.0,73,0.00,,,0.00,158.00,VWS V14.00,2013-08-11 22:15:00,
2013-08-11 17:30:00,86.7,76.6,29.95,East,90,5.0,11.0,72,0.00,,,0.00,123.00,VWS V14.00,2013-08-11 22:30:00,
2013-08-11 17:45:00,86.6,77.3,29.94,ESE,112,4.0,11.0,74,0.00,,,0.00,117.00,VWS V14.00,2013-08-11 22:45:00,
2013-08-11 18:00:00,86.3,76.6,29.95,SE,135,3.0,11.0,73,0.00,,,0.00,128.00,VWS V14.00,2013-08-11 23:00:00,
2013-08-11 18:15:00,86.6,76.5,29.94,ESE,112,3.0,11.0,72,0.00,,,0.00,145.00,VWS V14.00,2013-08-11 23:15:00,
2013-08-11 18:30:00,86.5,77.6,29.95,East,90,3.0,10.0,75,0.00,,,0.00,151.00,VWS V14.00,2013-08-11 23:30:00,
2013-08-11 18:45:00,86.6,77.7,29.95,South,180,2.0,7.0,75,0.00,,,0.00,204.00,VWS V14.00,2013-08-11 23:45:00,
2013-08-11 19:00:00,85.7,76.9,29.94,East,90,2.0,7.0,75,0.00,,,0.00,89.00,VWS V14.00,2013-08-12 00:00:00,
2013-08-11 19:15:00,85.2,76.8,29.93,ESE,112,2.0,6.0,76,0.00,,,0.00,57.00,VWS V14.00,2013-08-12 00:15:00,
2013-08-11 19:30:00,84.8,77.2,29.92,ESE,112,2.0,7.0,78,0.00,,,0.00,42.00,VWS V14.00,2013-08-12 00:30:00,
2013-08-11 19:45:00,84.2,77.0,29.92,ESE,112,2.0,6.0,79,0.00,,,0.00,24.00,VWS V14.00,2013-08-12 00:45:00,
2013-08-11 20:00:00,84.0,76.8,29.92,East,90,2.0,9.0,79,0.00,,,0.00,7.00,VWS V14.00,2013-08-12 01:00:00,
2013-08-11 20:15:00,83.9,76.7,29.93,East,90,1.0,6.0,79,0.00,,,0.00,0.00,VWS V14.00,2013-08-12 01:15:00,
2013-08-11 20:30:00,83.4,77.0,29.93,ESE,112,1.0,4.0,81,0.00,,,0.00,0.00,VWS V14.00,2013-08-12 01:30:00,
2013-08-11 20:45:00,83.1,77.0,29.94,ESE,112,1.0,5.0,82,0.00,,,0.00,0.00,VWS V14.00,2013-08-12 01:45:00,
2013-08-11 21:00:00,82.7,76.7,29.95,ESE,112,0.0,4.0,82,0.00,,,0.00,0.00,VWS V14.00,2013-08-12 02:00:00,
2013-08-11 21:15:00,82.3,76.3,29.95,SE,135,0.0,2.0,82,0.00,,,0.00,0.00,VWS V14.00,2013-08-12 02:15:00,
2013-08-11 21:30:00,82.2,76.2,29.95,SE,135,0.0,3.0,82,0.00,,,0.00,0.00,VWS V14.00,2013-08-12 02:30:00,
2013-08-11 21:45:00,82.2,76.5,29.95,SE,135,0.0,3.0,83,0.00,,,0.00,0.00,VWS V14.00,2013-08-12 02:45:00,
2013-08-11 22:00:00,82.0,76.3,29.96,ESE,112,0.0,4.0,83,0.00,,,0.00,0.00,VWS V14.00,2013-08-12 03:00:00,
2013-08-11 22:15:00,82.1,76.8,29.97,East,90,0.0,6.0,84,0.00,,,0.00,0.00,VWS V14.00,2013-08-12 03:15:00,
2013-08-11 22:30:00,82.4,75.6,29.97,ESE,112,2.0,7.0,80,0.00,,,0.00,0.00,VWS V14.00,2013-08-12 03:30:00,
2013-08-11 22:45:00,82.5,75.7,29.97,ESE,112,1.0,5.0,80,0.00,,,0.00,0.00,VWS V14.00,2013-08-12 03:45:00,
2013-08-11 23:00:00,82.5,76.4,29.97,ESE,112,2.0,6.0,82,0.00,,,0.00,0.00,VWS V14.00,2013-08-12 04:00:00,
2013-08-11 23:15:00,82.4,76.7,29.98,South,180,1.0,5.0,83,0.00,,,0.00,0.00,VWS V14.00,2013-08-12 04:15:00,
2013-08-11 23:30:00,82.3,76.6,29.98,SE,135,1.0,5.0,83,0.00,,,0.00,0.00,VWS V14.00,2013-08-12 04:30:00,
2013-08-11 23:45:00,82.3,76.3,29.98,ESE,112,1.0,5.0,82,0.00,,,0.00,0.00,VWS V14.00,2013-08-12 04:45:00,